Time;durP1;ratioP1;P1;durP2;ratioP2;P2;SDS_P1;SDS_P2;PMS_P1;PMS_P2;Temp;Humidity;BMP_temperature;BMP_pressure;BME280_temperature;BME280_humidity;BME280_pressure;Samples;Min_cycle;Max_cycle;Signal;HPM_P1;HPM_P2
2023/08/29 00:00:47;;;;;;;11.55;7.57;;;10.90;97.20;;;;;;5023833;28;20069;-69
2023/08/29 00:03:12;;;;;;;15.60;7.82;;;11.00;97.40;;;;;;5030136;28;20030;-68
2023/08/29 00:05:38;;;;;;;11.60;7.88;;;10.90;97.50;;;;;;5035724;28;20037;-69
2023/08/29 00:08:05;;;;;;;11.48;8.15;;;10.90;97.40;;;;;;5023316;28;20409;-69
2023/08/29 00:10:30;;;;;;;12.20;8.32;;;10.90;97.50;;;;;;5023110;28;20053;-68
2023/08/29 00:12:56;;;;;;;12.65;8.27;;;10.90;97.50;;;;;;5028958;28;20053;-69
2023/08/29 00:15:22;;;;;;;13.55;8.60;;;10.90;97.50;;;;;;5016122;28;20025;-69
2023/08/29 00:17:47;;;;;;;12.57;8.30;;;10.90;97.70;;;;;;5023528;28;20022;-68
2023/08/29 00:20:13;;;;;;;13.05;8.48;;;10.80;97.50;;;;;;5027374;28;20122;-69
2023/08/29 00:22:38;;;;;;;15.00;8.45;;;10.80;97.40;;;;;;5023661;28;20064;-68
2023/08/29 00:25:04;;;;;;;13.98;9.18;;;10.80;97.60;;;;;;5030560;28;20527;-68
2023/08/29 00:27:29;;;;;;;13.73;8.88;;;10.80;97.60;;;;;;5025779;28;20037;-69
2023/08/29 00:29:55;;;;;;;13.35;9.25;;;10.80;97.60;;;;;;5025012;28;20037;-68
2023/08/29 00:32:20;;;;;;;16.13;9.35;;;10.80;97.80;;;;;;5026540;28;20036;-69
2023/08/29 00:34:46;;;;;;;14.50;8.50;;;10.80;97.80;;;;;;5021451;28;20621;-69
2023/08/29 00:37:11;;;;;;;13.57;8.48;;;10.70;97.70;;;;;;5030435;28;20025;-68
2023/08/29 00:39:37;;;;;;;12.57;8.35;;;10.70;97.70;;;;;;5028009;28;20482;-69
2023/08/29 00:42:02;;;;;;;14.52;8.82;;;10.70;97.70;;;;;;5023300;28;20052;-68
2023/08/29 00:44:28;;;;;;;13.98;8.57;;;10.60;97.60;;;;;;5020627;28;20029;-70
2023/08/29 00:46:53;;;;;;;13.77;7.90;;;10.60;97.50;;;;;;5021685;28;20740;-68
2023/08/29 00:49:26;;;;;;;11.48;7.85;;;10.60;97.60;;;;;;5019881;28;20032;-68
2023/08/29 00:51:52;;;;;;;15.68;8.70;;;10.60;97.80;;;;;;5016614;28;20040;-69
2023/08/29 00:54:20;;;;;;;13.77;8.57;;;10.60;97.60;;;;;;5026822;28;20025;-69
2023/08/29 00:56:46;;;;;;;14.43;8.43;;;10.60;97.60;;;;;;5028912;28;20549;-69
2023/08/29 00:59:13;;;;;;;16.58;8.30;;;10.60;97.50;;;;;;5027317;28;20034;-68
2023/08/29 01:01:39;;;;;;;13.85;8.65;;;10.50;97.60;;;;;;5028016;28;20448;-68
2023/08/29 01:04:04;;;;;;;15.68;9.60;;;10.50;97.70;;;;;;5019491;28;20037;-68
2023/08/29 01:06:31;;;;;;;15.00;8.63;;;10.50;97.70;;;;;;5031205;28;20124;-68
2023/08/29 01:08:57;;;;;;;14.10;8.95;;;10.60;97.90;;;;;;5029739;28;20991;-69
2023/08/29 01:11:44;;;;;;;12.48;8.52;;;10.50;97.80;;;;;;5025165;28;20064;-68
2023/08/29 01:14:34;;;;;;;11.98;7.75;;;10.50;97.80;;;;;;5026677;28;20029;-68
2023/08/29 01:17:06;;;;;;;15.38;9.02;;;10.40;97.70;;;;;;5028479;28;20021;-69
2023/08/29 01:19:32;;;;;;;16.98;9.25;;;10.40;97.70;;;;;;5036192;28;20032;-69
2023/08/29 01:22:23;;;;;;;17.05;9.10;;;10.40;97.90;;;;;;5030814;28;20466;-68
2023/08/29 01:25:00;;;;;;;15.68;8.75;;;10.40;97.80;;;;;;5028315;28;20052;-69
2023/08/29 01:27:27;;;;;;;17.85;9.18;;;10.30;97.90;;;;;;5020463;28;20029;-68
2023/08/29 01:29:53;;;;;;;14.43;8.07;;;10.30;97.70;;;;;;5027352;28;20108;-69
2023/08/29 01:32:19;;;;;;;11.70;8.60;;;10.20;97.70;;;;;;5040196;28;20029;-68
2023/08/29 01:34:46;;;;;;;12.45;8.63;;;10.20;97.90;;;;;;5027876;28;20100;-68
2023/08/29 01:37:12;;;;;;;15.13;9.80;;;10.30;98.00;;;;;;5028081;28;20092;-68
2023/08/29 01:39:38;;;;;;;13.75;8.85;;;10.30;98.20;;;;;;5031516;28;20045;-68
2023/08/29 01:42:03;;;;;;;12.95;8.35;;;10.30;97.90;;;;;;5025404;28;20049;-68
2023/08/29 01:44:29;;;;;;;15.38;8.27;;;10.10;97.60;;;;;;5024269;28;20061;-70
2023/08/29 01:46:54;;;;;;;13.23;8.32;;;10.10;97.60;;;;;;5032308;28;20033;-68
2023/08/29 01:49:20;;;;;;;14.57;8.40;;;10.10;97.50;;;;;;5032721;28;20108;-68
2023/08/29 01:51:45;;;;;;;12.75;8.00;;;10.00;97.40;;;;;;5028474;28;20041;-68
2023/08/29 01:54:11;;;;;;;12.13;7.70;;;10.00;97.40;;;;;;5029653;28;20034;-68
2023/08/29 01:56:39;;;;;;;11.00;7.15;;;10.00;97.50;;;;;;5023491;28;20444;-69
2023/08/29 01:59:06;;;;;;;11.73;7.18;;;10.00;97.60;;;;;;5031397;28;20021;-68
2023/08/29 02:01:32;;;;;;;13.30;7.93;;;10.00;97.70;;;;;;5034498;28;20032;-68
2023/08/29 02:03:58;;;;;;;15.43;8.82;;;9.90;97.60;;;;;;5034485;28;20030;-69
2023/08/29 02:06:23;;;;;;;14.63;7.72;;;9.90;97.60;;;;;;5023798;28;20041;-68
2023/08/29 02:08:49;;;;;;;11.50;7.50;;;9.80;97.60;;;;;;5033840;28;20043;-68
2023/08/29 02:11:14;;;;;;;11.25;6.78;;;9.80;97.60;;;;;;5024239;28;20445;-68
2023/08/29 02:13:40;;;;;;;10.23;6.22;;;9.80;97.50;;;;;;5026108;28;20069;-70
2023/08/29 02:16:05;;;;;;;10.93;7.45;;;9.70;97.30;;;;;;5017496;28;20034;-68
2023/08/29 02:18:31;;;;;;;14.02;6.95;;;9.70;97.30;;;;;;5020067;28;20390;-69
2023/08/29 02:20:56;;;;;;;10.13;7.20;;;9.70;97.30;;;;;;5026717;28;20084;-69
2023/08/29 02:23:21;;;;;;;11.48;7.43;;;9.70;97.30;;;;;;5027152;28;20402;-68
2023/08/29 02:25:47;;;;;;;13.18;7.40;;;9.60;97.40;;;;;;5025326;28;20049;-68
2023/08/29 02:28:14;;;;;;;11.70;7.13;;;9.70;97.60;;;;;;5019643;28;20073;-68
2023/08/29 02:30:39;;;;;;;11.02;6.88;;;9.70;97.60;;;;;;5018100;28;20060;-69
2023/08/29 02:33:05;;;;;;;12.15;8.13;;;9.70;97.80;;;;;;5020142;28;20061;-69
2023/08/29 02:35:30;;;;;;;16.90;8.50;;;9.70;97.90;;;;;;5026803;28;20485;-69
2023/08/29 02:37:55;;;;;;;13.35;8.93;;;9.70;97.90;;;;;;5026859;28;20057;-68
2023/08/29 02:40:22;;;;;;;15.70;8.32;;;9.70;97.80;;;;;;5029028;28;20044;-69
2023/08/29 02:42:47;;;;;;;16.00;9.07;;;9.60;97.70;;;;;;5019347;28;20025;-69
2023/08/29 02:45:13;;;;;;;13.43;7.72;;;9.60;97.60;;;;;;5020301;28;20048;-68
2023/08/29 02:47:38;;;;;;;13.07;7.35;;;9.60;97.70;;;;;;5026716;28;20038;-68
2023/08/29 02:50:04;;;;;;;11.85;7.35;;;9.60;97.60;;;;;;5026440;28;20108;-69
2023/08/29 02:52:30;;;;;;;10.80;6.75;;;9.60;97.60;;;;;;5020683;28;20363;-69
2023/08/29 02:54:55;;;;;;;10.35;6.63;;;9.60;97.50;;;;;;5024719;28;20037;-69
2023/08/29 02:57:21;;;;;;;11.68;6.50;;;9.50;97.40;;;;;;5027245;28;20037;-69
2023/08/29 02:59:46;;;;;;;11.90;6.90;;;9.50;97.50;;;;;;5021804;28;20645;-69
2023/08/29 03:02:12;;;;;;;11.02;6.85;;;9.50;97.60;;;;;;5018384;28;20045;-68
2023/08/29 03:04:38;;;;;;;13.55;7.80;;;9.60;97.60;;;;;;5029859;28;20378;-68
2023/08/29 03:07:04;;;;;;;12.73;7.95;;;9.60;97.80;;;;;;5028848;28;20125;-69
2023/08/29 03:09:30;;;;;;;15.32;8.38;;;9.50;97.80;;;;;;5029723;28;20116;-69
2023/08/29 03:11:55;;;;;;;12.32;7.57;;;9.60;97.70;;;;;;5023722;28;20042;-68
2023/08/29 03:14:21;;;;;;;15.38;8.35;;;9.50;97.50;;;;;;5025759;28;20022;-68
2023/08/29 03:16:46;;;;;;;13.95;8.10;;;9.40;97.50;;;;;;5019449;28;20033;-69
2023/08/29 03:19:12;;;;;;;15.05;7.97;;;9.40;97.40;;;;;;5020389;28;20094;-69
2023/08/29 03:21:37;;;;;;;12.98;8.25;;;9.30;97.40;;;;;;5020422;28;20512;-68
2023/08/29 03:24:03;;;;;;;17.75;8.90;;;9.40;97.30;;;;;;5029471;28;20052;-68
2023/08/29 03:26:28;;;;;;;24.70;10.23;;;9.40;97.50;;;;;;5017072;28;20044;-69
2023/08/29 03:28:54;;;;;;;22.65;10.88;;;9.40;97.50;;;;;;5027993;28;20029;-69
2023/08/29 03:31:19;;;;;;;21.63;10.35;;;9.40;97.60;;;;;;5039098;28;20045;-68
2023/08/29 03:33:45;;;;;;;18.27;10.23;;;9.40;97.60;;;;;;5034179;28;20185;-69
2023/08/29 03:36:11;;;;;;;19.65;10.88;;;9.40;97.80;;;;;;5033086;28;20029;-68
2023/08/29 03:38:39;;;;;;;18.98;11.05;;;9.50;97.90;;;;;;5025922;28;20432;-69
2023/08/29 03:41:05;;;;;;;15.63;10.27;;;9.50;98.00;;;;;;5016998;28;20064;-68
2023/08/29 03:43:32;;;;;;;17.05;10.55;;;9.50;98.10;;;;;;5023246;28;20057;-70
2023/08/29 03:45:59;;;;;;;17.67;11.20;;;9.50;98.10;;;;;;5025426;28;20079;-68
2023/08/29 03:48:25;;;;;;;16.60;10.85;;;9.50;97.90;;;;;;5030692;28;20075;-68
2023/08/29 03:50:51;;;;;;;18.95;12.35;;;9.50;97.90;;;;;;5023017;28;20060;-68
2023/08/29 03:53:16;;;;;;;16.13;10.93;;;9.50;98.00;;;;;;5025110;28;20029;-68
2023/08/29 03:55:42;;;;;;;17.88;10.38;;;9.50;97.90;;;;;;5034006;28;20082;-68
2023/08/29 03:58:07;;;;;;;17.60;10.52;;;9.40;97.80;;;;;;5026308;28;20497;-68
2023/08/29 04:00:33;;;;;;;16.88;10.05;;;9.40;97.70;;;;;;5022328;28;20037;-69
2023/08/29 04:03:06;;;;;;;17.00;10.93;;;9.30;97.70;;;;;;5022449;28;20547;-69
2023/08/29 04:05:32;;;;;;;16.73;10.45;;;9.40;97.70;;;;;;5026384;28;20024;-68
2023/08/29 04:07:57;;;;;;;17.65;10.80;;;9.30;97.60;;;;;;5023849;28;20034;-68
2023/08/29 04:10:23;;;;;;;18.50;10.73;;;9.30;97.60;;;;;;5016454;28;20052;-68
2023/08/29 04:12:48;;;;;;;15.55;10.38;;;9.20;97.50;;;;;;5032712;28;20496;-69
2023/08/29 04:15:13;;;;;;;17.33;9.73;;;9.20;97.50;;;;;;5015548;28;20029;-68
2023/08/29 04:17:39;;;;;;;21.98;11.98;;;9.20;97.60;;;;;;5017511;28;20418;-69
2023/08/29 04:20:08;;;;;;;17.95;10.73;;;9.20;97.90;;;;;;5028570;28;20107;-68
2023/08/29 04:22:35;;;;;;;21.45;12.35;;;9.30;97.90;;;;;;5026142;28;20092;-68
2023/08/29 04:25:04;;;;;;;20.42;11.93;;;9.30;98.10;;;;;;5025058;28;20067;-68
2023/08/29 04:27:30;;;;;;;25.25;14.27;;;9.30;98.10;;;;;;5028838;28;20025;-66
2023/08/29 04:29:55;;;;;;;22.98;12.38;;;9.20;98.00;;;;;;5033744;28;20063;-68
2023/08/29 04:32:21;;;;;;;30.85;14.40;;;9.30;98.10;;;;;;5030026;28;20453;-67
2023/08/29 04:34:46;;;;;;;22.63;12.68;;;9.30;98.20;;;;;;5037901;28;20029;-68
2023/08/29 04:37:12;;;;;;;22.67;12.23;;;9.30;98.20;;;;;;5029444;28;20116;-67
2023/08/29 04:39:37;;;;;;;23.35;13.38;;;9.30;98.20;;;;;;5029928;28;20425;-68
2023/08/29 04:42:03;;;;;;;23.10;12.45;;;9.30;98.10;;;;;;5027878;28;20108;-68
2023/08/29 04:44:29;;;;;;;24.85;12.88;;;9.40;98.20;;;;;;5025794;28;20029;-68
2023/08/29 04:46:55;;;;;;;27.58;13.90;;;9.40;98.20;;;;;;5027639;28;20037;-68
2023/08/29 04:49:21;;;;;;;28.42;14.20;;;9.50;98.20;;;;;;5022871;28;20034;-68
2023/08/29 04:51:46;;;;;;;32.53;15.07;;;9.50;98.30;;;;;;5024962;28;20808;-67
2023/08/29 04:54:12;;;;;;;31.65;14.57;;;9.50;98.30;;;;;;5026986;28;20033;-68
2023/08/29 04:56:37;;;;;;;31.08;15.63;;;9.60;98.30;;;;;;5045433;28;20025;-68
2023/08/29 04:59:03;;;;;;;31.88;15.20;;;9.60;98.30;;;;;;5031494;28;20427;-68
2023/08/29 05:01:29;;;;;;;36.15;16.88;;;9.60;98.40;;;;;;5021241;28;20038;-68
2023/08/29 05:03:54;;;;;;;35.97;17.13;;;9.60;98.40;;;;;;5018110;28;20040;-68
2023/08/29 05:06:20;;;;;;;35.10;15.52;;;9.70;98.40;;;;;;5022717;28;20041;-68
2023/08/29 05:08:45;;;;;;;35.58;17.48;;;9.70;98.40;;;;;;5024953;28;20041;-67
2023/08/29 05:11:11;;;;;;;32.90;17.27;;;9.70;98.30;;;;;;5023856;28;20038;-67
2023/08/29 05:13:36;;;;;;;32.33;16.95;;;9.80;98.40;;;;;;5024683;28;20473;-67
2023/08/29 05:16:03;;;;;;;49.60;21.80;;;9.90;98.40;;;;;;5034954;28;20097;-67
2023/08/29 05:18:28;;;;;;;42.08;20.52;;;10.00;98.50;;;;;;5023809;28;20028;-68
2023/08/29 05:20:55;;;;;;;44.30;21.17;;;10.10;98.60;;;;;;5031450;28;20100;-68
2023/08/29 05:23:21;;;;;;;44.08;20.15;;;10.10;98.50;;;;;;5023001;28;20030;-67
2023/08/29 05:25:47;;;;;;;53.15;23.65;;;10.20;98.60;;;;;;5025303;28;20057;-68
2023/08/29 05:28:12;;;;;;;54.72;23.58;;;10.30;98.70;;;;;;5026462;28;20056;-69
2023/08/29 05:30:38;;;;;;;59.20;25.83;;;10.40;98.70;;;;;;5022337;28;20044;-68
2023/08/29 05:33:03;;;;;;;60.20;24.85;;;10.50;98.70;;;;;;5021167;28;20026;-67
2023/08/29 05:35:29;;;;;;;61.60;25.90;;;10.60;98.80;;;;;;5024484;28;20034;-68
2023/08/29 05:37:54;;;;;;;59.42;23.73;;;10.70;98.60;;;;;;5018661;28;20032;-67
2023/08/29 05:40:19;;;;;;;51.90;25.38;;;10.80;98.60;;;;;;5022929;28;20037;-68
2023/08/29 05:42:45;;;;;;;47.42;23.38;;;10.80;98.60;;;;;;5019134;28;20461;-68
2023/08/29 05:45:10;;;;;;;41.85;21.23;;;10.90;98.50;;;;;;5032027;28;20061;-72
2023/08/29 05:47:36;;;;;;;42.47;23.05;;;11.00;98.40;;;;;;5029404;28;20037;-67
2023/08/29 05:50:02;;;;;;;42.30;21.17;;;11.10;98.30;;;;;;5018784;28;20060;-68
2023/08/29 05:52:28;;;;;;;40.65;21.70;;;11.20;98.30;;;;;;5019305;28;20033;-68
2023/08/29 05:54:53;;;;;;;42.33;20.42;;;11.30;98.20;;;;;;5021840;28;20014;-67
2023/08/29 05:57:20;;;;;;;42.47;19.83;;;11.30;98.00;;;;;;5022526;28;20031;-68
2023/08/29 05:59:45;;;;;;;35.38;19.75;;;11.40;98.00;;;;;;5017536;28;20040;-68
2023/08/29 06:02:11;;;;;;;41.08;20.77;;;11.40;98.00;;;;;;5040913;28;20481;-67
2023/08/29 06:04:37;;;;;;;37.05;19.90;;;11.50;98.00;;;;;;5032823;28;20025;-68
2023/08/29 06:07:04;;;;;;;41.28;19.15;;;11.60;97.80;;;;;;5032528;28;20029;-67
2023/08/29 06:09:31;;;;;;;36.58;18.98;;;11.60;97.70;;;;;;5023523;28;20029;-69
2023/08/29 06:11:56;;;;;;;28.35;16.48;;;11.70;97.60;;;;;;5037060;28;20528;-68
2023/08/29 06:14:22;;;;;;;34.83;17.90;;;11.80;97.50;;;;;;5028065;28;20037;-68
2023/08/29 06:16:47;;;;;;;28.02;16.42;;;11.80;97.50;;;;;;5030199;28;20091;-68
2023/08/29 06:19:12;;;;;;;26.65;15.90;;;11.90;97.30;;;;;;5031182;28;20109;-68
2023/08/29 06:21:38;;;;;;;24.10;14.88;;;12.00;97.30;;;;;;5030204;28;20042;-67
2023/08/29 06:24:05;;;;;;;23.95;15.23;;;12.10;97.20;;;;;;5036201;28;20104;-67
2023/08/29 06:26:30;;;;;;;22.17;14.27;;;12.20;97.00;;;;;;5030161;28;20037;-69
2023/08/29 06:28:56;;;;;;;20.85;13.50;;;12.20;97.10;;;;;;5031639;28;20564;-67
2023/08/29 06:31:21;;;;;;;20.50;12.43;;;12.40;97.20;;;;;;5040058;28;20140;-67
2023/08/29 06:33:46;;;;;;;20.33;12.85;;;12.50;96.90;;;;;;5031886;28;20136;-68
2023/08/29 06:36:12;;;;;;;18.15;11.38;;;12.60;97.00;;;;;;5034202;28;20043;-67
2023/08/29 06:38:39;;;;;;;18.58;11.70;;;12.60;96.90;;;;;;5035317;28;20036;-68
2023/08/29 06:41:04;;;;;;;16.73;11.60;;;12.80;97.00;;;;;;5032394;28;20456;-65
2023/08/29 06:43:30;;;;;;;15.55;11.02;;;12.80;96.50;;;;;;5031132;28;20358;-65
2023/08/29 06:45:55;;;;;;;15.50;11.02;;;12.80;96.60;;;;;;5020356;28;20081;-66
2023/08/29 06:48:21;;;;;;;17.23;10.73;;;12.90;96.60;;;;;;5025339;28;20100;-65
2023/08/29 06:50:46;;;;;;;16.05;11.32;;;13.00;96.50;;;;;;5026248;28;20036;-65
2023/08/29 06:53:12;;;;;;;15.30;10.15;;;13.10;96.30;;;;;;5030870;28;20034;-65
2023/08/29 06:55:37;;;;;;;17.38;10.65;;;13.10;96.20;;;;;;5022207;28;20032;-65
2023/08/29 06:58:04;;;;;;;13.18;9.85;;;13.20;95.90;;;;;;5024600;28;20120;-65
2023/08/29 07:00:31;;;;;;;12.95;10.48;;;13.30;96.00;;;;;;5017409;28;20068;-69
2023/08/29 07:02:57;;;;;;;16.45;9.98;;;13.40;95.90;;;;;;5031628;28;20032;-69
2023/08/29 07:05:22;;;;;;;15.88;9.93;;;13.40;95.90;;;;;;5025981;28;20029;-68
2023/08/29 07:07:48;;;;;;;16.90;10.20;;;13.50;95.80;;;;;;5029991;28;20040;-69
2023/08/29 07:10:13;;;;;;;16.65;10.18;;;13.50;95.80;;;;;;5031950;28;20474;-68
2023/08/29 07:12:39;;;;;;;15.80;10.43;;;13.60;95.60;;;;;;5031148;28;20029;-68
2023/08/29 07:15:05;;;;;;;13.85;9.70;;;13.60;95.10;;;;;;5034301;28;20033;-68
2023/08/29 07:17:31;;;;;;;15.27;9.18;;;13.60;94.90;;;;;;5019424;28;20079;-68
2023/08/29 07:19:56;;;;;;;13.23;9.05;;;13.80;95.60;;;;;;5035249;28;20425;-68
2023/08/29 07:22:22;;;;;;;15.65;8.73;;;13.80;94.70;;;;;;5022340;28;20107;-68
2023/08/29 07:24:48;;;;;;;16.17;9.40;;;13.90;95.20;;;;;;5027330;28;20493;-68
2023/08/29 07:27:13;;;;;;;13.07;7.85;;;14.00;95.10;;;;;;5028193;28;20025;-69
2023/08/29 07:29:41;;;;;;;11.77;7.60;;;14.10;94.50;;;;;;5021711;28;20109;-68
2023/08/29 07:32:07;;;;;;;11.25;8.23;;;14.10;94.40;;;;;;5024939;28;20021;-68
2023/08/29 07:34:32;;;;;;;10.63;7.43;;;14.20;94.30;;;;;;5019375;28;20517;-68
2023/08/29 07:36:58;;;;;;;10.52;7.65;;;14.30;94.20;;;;;;5024549;28;20414;-69
2023/08/29 07:39:24;;;;;;;11.65;7.13;;;14.30;93.90;;;;;;5015394;28;20037;-68
2023/08/29 07:41:50;;;;;;;11.90;7.75;;;14.20;93.90;;;;;;5026046;28;20025;-69
2023/08/29 07:44:15;;;;;;;12.93;7.43;;;14.30;94.10;;;;;;5026336;28;20087;-68
2023/08/29 07:46:41;;;;;;;12.15;7.75;;;14.40;94.10;;;;;;5026490;28;20525;-68
2023/08/29 07:49:13;;;;;;;9.48;7.47;;;14.50;93.90;;;;;;5025818;28;20584;-69
2023/08/29 07:51:41;;;;;;;8.40;7.05;;;14.50;93.50;;;;;;5022634;28;20030;-69
2023/08/29 07:54:07;;;;;;;12.40;7.22;;;14.50;93.20;;;;;;5031932;28;20029;-69
2023/08/29 07:56:33;;;;;;;10.32;6.65;;;14.60;93.20;;;;;;5029239;28;20029;-68
2023/08/29 07:58:58;;;;;;;12.73;7.63;;;14.70;93.70;;;;;;5017926;28;20667;-69
2023/08/29 08:01:24;;;;;;;9.98;6.75;;;14.80;93.30;;;;;;5031489;28;20116;-68
2023/08/29 08:03:49;;;;;;;10.85;7.00;;;14.80;93.10;;;;;;5027721;28;20022;-68
2023/08/29 08:06:15;;;;;;;8.98;6.80;;;14.90;92.30;;;;;;5020852;28;20033;-69
2023/08/29 08:08:40;;;;;;;9.50;5.80;;;15.10;92.50;;;;;;5032723;28;20042;-69
2023/08/29 08:11:06;;;;;;;8.10;6.07;;;15.10;92.10;;;;;;5035680;28;20052;-68
2023/08/29 08:13:32;;;;;;;9.30;6.03;;;15.30;91.40;;;;;;5023437;28;20351;-68
2023/08/29 08:15:58;;;;;;;9.40;5.50;;;15.50;91.30;;;;;;5015540;28;20025;-69
2023/08/29 08:18:23;;;;;;;7.85;5.13;;;15.50;91.30;;;;;;5027979;28;20425;-69
2023/08/29 08:20:49;;;;;;;10.35;5.22;;;15.60;91.00;;;;;;5023018;28;20033;-69
2023/08/29 08:23:14;;;;;;;7.80;4.78;;;15.70;91.20;;;;;;5026751;28;20041;-69
2023/08/29 08:25:40;;;;;;;9.27;5.30;;;15.50;89.70;;;;;;5025114;28;20413;-70
2023/08/29 08:28:06;;;;;;;10.68;5.20;;;15.60;90.70;;;;;;5030545;28;20110;-69
2023/08/29 08:30:31;;;;;;;7.30;4.80;;;15.70;90.40;;;;;;5022642;28;20116;-70
2023/08/29 08:32:57;;;;;;;7.90;4.80;;;15.80;90.10;;;;;;5022147;28;20048;-69
2023/08/29 08:35:23;;;;;;;8.80;4.32;;;15.80;89.70;;;;;;5032020;28;20922;-68
2023/08/29 08:37:48;;;;;;;6.57;4.32;;;15.90;89.40;;;;;;5025130;28;20017;-68
2023/08/29 08:40:15;;;;;;;7.03;4.70;;;16.00;90.10;;;;;;5028720;28;20057;-69
2023/08/29 08:42:40;;;;;;;6.70;4.35;;;16.00;89.30;;;;;;5030836;28;20044;-68
2023/08/29 08:45:07;;;;;;;6.18;4.28;;;16.00;88.90;;;;;;5023217;28;20030;-69
2023/08/29 08:47:35;;;;;;;6.55;4.60;;;16.10;89.00;;;;;;5025268;28;20032;-68
2023/08/29 08:50:01;;;;;;;6.95;4.30;;;16.20;89.30;;;;;;5020679;28;20033;-69
2023/08/29 08:52:28;;;;;;;5.88;4.32;;;16.10;88.60;;;;;;5029166;28;20057;-70
2023/08/29 08:54:54;;;;;;;6.78;4.28;;;16.10;89.70;;;;;;5022045;28;20053;-69
2023/08/29 08:57:19;;;;;;;7.60;4.25;;;16.20;89.50;;;;;;5039943;28;20119;-68
2023/08/29 08:59:45;;;;;;;7.75;4.40;;;16.10;89.40;;;;;;5025420;28;20056;-69
2023/08/29 09:02:14;;;;;;;5.65;3.95;;;16.40;89.10;;;;;;5023906;28;20107;-69
2023/08/29 09:04:39;;;;;;;9.02;4.20;;;16.30;88.20;;;;;;5022204;28;20432;-69
2023/08/29 09:07:05;;;;;;;6.53;4.70;;;16.50;88.40;;;;;;5024298;28;20037;-68
2023/08/29 09:09:30;;;;;;;6.28;4.00;;;16.60;88.60;;;;;;5026918;28;20055;-69
2023/08/29 09:11:57;;;;;;;6.78;4.40;;;16.50;88.10;;;;;;5026259;28;20034;-69
2023/08/29 09:14:24;;;;;;;6.68;4.53;;;16.30;88.40;;;;;;5037046;28;20017;-68
2023/08/29 09:16:57;;;;;;;7.18;4.55;;;16.30;88.80;;;;;;5024934;28;20104;-69
2023/08/29 09:19:24;;;;;;;6.10;4.72;;;16.40;88.90;;;;;;5022099;28;20359;-68
2023/08/29 09:21:50;;;;;;;7.75;4.70;;;16.50;89.20;;;;;;5029580;28;20034;-68
2023/08/29 09:24:32;;;;;;;7.93;4.40;;;16.70;88.90;;;;;;5039718;28;20041;-68
2023/08/29 09:26:58;;;;;;;5.38;4.25;;;16.60;87.80;;;;;;5033121;28;20071;-69
2023/08/29 09:29:24;;;;;;;7.75;4.95;;;16.90;87.20;;;;;;5024728;28;20033;-68
2023/08/29 09:31:50;;;;;;;6.70;4.88;;;17.10;87.70;;;;;;5037526;28;20374;-69
2023/08/29 09:34:29;;;;;;;7.13;4.55;;;17.40;86.80;;;;;;5026403;28;20043;-69
2023/08/29 09:36:59;;;;;;;8.50;4.53;;;17.50;86.00;;;;;;5024326;28;20029;-69
2023/08/29 09:39:26;;;;;;;8.07;4.70;;;17.70;86.20;;;;;;5022333;28;20374;-68
2023/08/29 09:42:06;;;;;;;6.45;3.40;;;17.80;83.90;;;;;;5028579;28;20056;-68
2023/08/29 09:44:38;;;;;;;5.75;2.80;;;18.10;84.70;;;;;;5021180;28;20048;-69
2023/08/29 09:47:09;;;;;;;5.53;3.35;;;18.50;83.30;;;;;;5032676;28;20036;-69
2023/08/29 09:49:48;;;;;;;6.13;3.00;;;18.70;82.30;;;;;;5018302;28;20078;-70
2023/08/29 09:52:14;;;;;;;4.40;2.70;;;19.00;80.30;;;;;;5033191;28;20026;-68
2023/08/29 09:54:45;;;;;;;3.53;2.15;;;19.10;79.30;;;;;;5036352;28;20029;-69
2023/08/29 09:57:12;;;;;;;2.60;1.65;;;19.50;77.90;;;;;;5034907;28;20067;-70
2023/08/29 09:59:41;;;;;;;2.65;1.55;;;19.40;76.90;;;;;;5034547;28;20037;-70
2023/08/29 10:02:11;;;;;;;3.80;1.75;;;19.50;77.70;;;;;;5038418;28;20482;-70
2023/08/29 10:04:41;;;;;;;4.00;2.20;;;19.50;76.50;;;;;;5025724;28;20037;-70
2023/08/29 10:07:10;;;;;;;3.38;1.90;;;19.10;76.50;;;;;;5017927;28;20025;-69
2023/08/29 10:09:36;;;;;;;3.00;1.30;;;19.20;77.20;;;;;;5027373;28;20114;-68
2023/08/29 10:12:03;;;;;;;3.75;1.13;;;19.70;75.80;;;;;;5028472;28;20069;-68
2023/08/29 10:14:31;;;;;;;2.75;1.40;;;20.30;76.30;;;;;;5018243;28;20014;-69
2023/08/29 10:16:58;;;;;;;2.58;1.50;;;20.30;72.40;;;;;;5031147;28;20116;-68
2023/08/29 10:19:26;;;;;;;3.05;1.15;;;20.50;72.80;;;;;;5025241;28;20108;-68
2023/08/29 10:21:53;;;;;;;1.63;0.77;;;20.30;72.70;;;;;;5031169;28;20157;-69
2023/08/29 10:24:20;;;;;;;4.03;1.10;;;20.40;69.90;;;;;;5029494;28;20041;-68
2023/08/29 10:26:46;;;;;;;2.88;0.85;;;20.20;73.10;;;;;;5020645;28;20038;-69
2023/08/29 10:29:11;;;;;;;1.98;0.98;;;20.10;72.00;;;;;;5026842;28;20029;-68
2023/08/29 10:31:38;;;;;;;1.67;0.80;;;19.90;70.40;;;;;;5028408;28;20033;-69
2023/08/29 10:34:03;;;;;;;2.88;0.70;;;20.20;73.20;;;;;;5026194;28;20083;-70
2023/08/29 10:36:29;;;;;;;2.80;1.00;;;20.70;72.50;;;;;;5027984;28;20022;-68
2023/08/29 10:38:57;;;;;;;2.17;1.00;;;20.60;73.50;;;;;;5024649;28;20064;-69
2023/08/29 10:41:23;;;;;;;3.50;0.82;;;20.40;73.30;;;;;;5034987;28;20024;-68
2023/08/29 10:43:52;;;;;;;3.58;1.20;;;20.00;69.90;;;;;;5022432;28;20033;-69
2023/08/29 10:46:18;;;;;;;2.35;0.95;;;20.00;71.60;;;;;;5036645;28;20028;-69
2023/08/29 10:48:44;;;;;;;1.90;0.73;;;20.30;69.30;;;;;;5020920;28;20025;-69
2023/08/29 10:51:22;;;;;;;1.40;0.82;;;21.00;69.30;;;;;;5034311;28;20470;-68
2023/08/29 10:54:05;;;;;;;1.63;0.60;;;20.90;67.10;;;;;;5023362;28;20080;-69
2023/08/29 10:56:40;;;;;;;2.35;0.85;;;20.80;69.30;;;;;;5036503;28;20030;-69
2023/08/29 10:59:06;;;;;;;1.45;0.80;;;21.10;72.10;;;;;;5018099;28;20381;-70
2023/08/29 11:01:31;;;;;;;1.50;0.90;;;21.10;65.30;;;;;;5018446;28;20029;-69
2023/08/29 11:04:03;;;;;;;1.55;0.80;;;21.20;69.10;;;;;;5024000;28;20029;-70
2023/08/29 11:06:54;;;;;;;1.33;0.65;;;21.10;69.30;;;;;;5024197;28;20034;-69
2023/08/29 11:09:22;;;;;;;2.13;0.90;;;21.00;65.10;;;;;;5028828;28;20025;-69
2023/08/29 11:12:10;;;;;;;1.92;0.60;;;20.90;69.00;;;;;;5027231;28;20183;-70
2023/08/29 11:14:52;;;;;;;2.72;0.85;;;21.00;68.30;;;;;;5022821;28;20037;-69
2023/08/29 11:17:23;;;;;;;3.00;1.05;;;20.60;67.30;;;;;;5024857;28;20021;-73
2023/08/29 11:20:02;;;;;;;2.75;0.43;;;20.70;67.10;;;;;;5022959;28;20101;-73
2023/08/29 11:22:30;;;;;;;1.80;0.70;;;20.70;66.00;;;;;;5027890;28;20048;-69
2023/08/29 11:24:56;;;;;;;0.60;0.60;;;20.80;64.10;;;;;;5030713;28;20041;-70
2023/08/29 11:27:28;;;;;;;1.25;0.60;;;21.20;63.50;;;;;;5029294;28;20029;-71
2023/08/29 11:29:54;;;;;;;0.73;0.50;;;21.50;63.00;;;;;;5017267;28;20030;-69
2023/08/29 11:32:19;;;;;;;1.77;0.60;;;21.60;63.40;;;;;;5024478;28;20449;-70
2023/08/29 11:34:53;;;;;;;1.40;0.80;;;21.50;62.90;;;;;;5027242;28;20064;-69
2023/08/29 11:37:18;;;;;;;2.22;0.77;;;21.70;62.40;;;;;;5022371;28;20099;-70
2023/08/29 11:39:58;;;;;;;3.00;1.00;;;21.70;63.40;;;;;;5027395;28;20037;-70
2023/08/29 11:42:29;;;;;;;1.92;0.73;;;22.00;63.40;;;;;;5021616;28;20025;-70
2023/08/29 11:44:54;;;;;;;2.63;0.82;;;22.00;61.30;;;;;;5027025;28;20353;-69
2023/08/29 11:47:20;;;;;;;1.55;0.70;;;22.00;62.10;;;;;;5025940;28;20029;-70
2023/08/29 11:49:50;;;;;;;2.38;0.60;;;21.90;62.30;;;;;;5017742;28;20030;-70
2023/08/29 11:52:16;;;;;;;0.93;0.73;;;22.10;63.00;;;;;;5018665;28;20079;-70
2023/08/29 11:54:50;;;;;;;2.17;0.82;;;22.00;61.20;;;;;;5024081;28;20528;-69
2023/08/29 11:57:16;;;;;;;4.20;0.60;;;22.00;60.30;;;;;;5022625;28;20026;-70
2023/08/29 11:59:43;;;;;;;2.05;0.60;;;22.10;59.20;;;;;;5019459;28;20041;-69
2023/08/29 12:02:16;;;;;;;0.65;0.50;;;22.30;60.30;;;;;;5014789;28;20465;-69
2023/08/29 12:04:44;;;;;;;2.60;0.70;;;22.00;61.00;;;;;;5019171;28;20040;-69
2023/08/29 12:07:14;;;;;;;2.95;0.60;;;22.10;58.90;;;;;;5027911;28;20026;-69
2023/08/29 12:09:43;;;;;;;1.30;0.70;;;22.00;60.70;;;;;;5028279;28;20032;-69
2023/08/29 12:12:27;;;;;;;1.05;0.47;;;21.90;58.90;;;;;;5025693;28;20030;-69
2023/08/29 12:14:53;;;;;;;1.02;0.50;;;21.80;58.90;;;;;;5019180;28;20397;-70
2023/08/29 12:17:19;;;;;;;2.03;0.60;;;21.80;58.10;;;;;;5019145;28;20030;-69
2023/08/29 12:19:46;;;;;;;1.30;0.65;;;21.90;58.30;;;;;;5015141;28;21383;-70
2023/08/29 12:22:11;;;;;;;2.45;0.60;;;22.00;56.30;;;;;;5019272;28;20048;-70
2023/08/29 12:24:37;;;;;;;2.15;0.70;;;22.30;56.10;;;;;;5019578;28;20050;-69
2023/08/29 12:27:04;;;;;;;1.13;0.60;;;22.40;59.00;;;;;;5020048;28;20042;-70
2023/08/29 12:29:31;;;;;;;1.58;0.60;;;22.50;61.20;;;;;;5018334;28;20025;-72
2023/08/29 12:31:57;;;;;;;2.35;0.98;;;22.20;58.10;;;;;;5019190;28;20095;-70
2023/08/29 12:34:22;;;;;;;3.95;0.80;;;22.70;59.60;;;;;;5032421;28;20481;-71
2023/08/29 12:36:47;;;;;;;1.60;0.75;;;23.20;59.10;;;;;;5020665;28;20064;-71
2023/08/29 12:39:13;;;;;;;1.73;0.77;;;23.10;59.30;;;;;;5023140;28;20029;-69